Timeline UpdatesTrip UpdatesNews PostsPvt Posts♥♥Travel TipsAdmin PostsConv PostsFollowed PostsChat RequestsBlog PostsPNR Posts

Disclaimer
Search
 
 
Sat Nov 22, 2014 19:43:04 ISTHomeTrainsΣChainsAtlasPNRForumGalleryNewsFAQTripsMembersLoginFeedback
No Recent News for this Train
Other Trains in the News **new
Latest...
Will Reach MAS @ 04.25 Wef 01/07/2014.
Sat Jun 28, 2014 (08:32PM)
⇐ Return Journey: Train# 11028

11027/Mumbai CST-Chennai Mail

Time-Table HAS CHANGED.
Sep 01 2014 (11:43PM)
Change Departure Station:
Change Arrival Station:
Post a Train Travel TipPost a Train Travel Tip **new
Post a Comment/Question/Picture/VideoPost a Comment/Question/Picture/Video
Pantry/Catering
✓ Pantry Car Avbl
✓ Catering Avbl
RSA - Rake Sharing
11042 Mumbai Express
Rake/Coach Composition
Loco ;SLR ,UR ,S1, S2, S3, S4, S5, S6, S7,PC ,S8,S9,S10,A1,B1 ,RMS ,UR,LDS ,S11 (S11 From Daund Junction To Solapur)
Loco
CSTM-PUNE: KYN WCAM-2P / 3 PUNE-GTL: GY WDM-3A/3D GTL-MAS: LGD WAP4
News    PNR    Forum    Time-Table    Availability    Fare Chart    Map    Arr/Dep History    Trips    Gallery    ΣChains    X/O    Timeline    
Travel Time: 1h 50m    2 halts    Distance: 92 km    Avg Speed: 50 km/hr
Type: Mail/Express
Zone: CR/Central
Departs @ 01:25 (Avg 24m late)
Platform# 1
SMTWTFS
Karjat Junction/KJT 
Arrives @ 03:15 (Avg 21m late)
Platform# 4
SMTWTFS
Pune Junction/PUNE 

2 halts. 24 intermediate Stations between Karjat Junction and Pune Junction

Show ALL intermediate Stations  Show Old Time-Table

#TrkCodeStation NameX/OArrivesAvgDepartsAvgHaltPFDay#KmSpeedElevZoneAddress
1/==/CSTMMumbai CST (18)  -23:45+2--1-99.96510mCRMumbai 400001, Maharashtra
2/==/DRMumbai Dadar Central (8)  23:53+1223:55+122m51-91.3647mCRMumbai 400014, Maharashtra
3/==/KYNKalyan Junction (8)  00:35 00:37+1400:40+175 3m52-46.96510mCRKalyan 421301, Maharashtra
4/==/KJTKarjat Junction (4)»X01:23+2001:25+242m120.03957mCRKarjat, Maharashtra
5/==/LNLLonavala (3)X02:13 02:09+1302:15 02:10+152 1m2228.672623mCRLonavala 410401, Maharashtra
6/==/KKKhadki (3)  02:58+2103:00+212m1286.324562mCRPune 411003, Maharashtra
7/==/PUNEPune Junction (6)•03:25 03:15+2103:35 03:25+3110m4292.348556mCRPune 411001, Maharashtra
8%==%DDDaund Junction (7)05:05 05:00+805:15 05:10+1710m32167.972521mCRNew Daund Dist. Pune 413801, Maharashtra
9%==!BGVNBhigwan (2)X  05:38 05:33+2305:40 05:35+262m12195.548509mCRDaund, Maharashtra
10!==!JEURJeur (1)X  06:28 06:33+3006:30 06:35+332m12241.6121526mCRJeur, Maharashtra
11!==!KEMKem (2)X  06:48 06:43+4106:50 06:45+472m12257.747548mCRKem, Maharashtra
12!==!KWVKurduvadi Junction (4)X  07:30 07:08+5407:32 07:10+582m22275.841516mCRKurduvadi Dist-Solapur, Maharashtra
13!==!MAMadha (2)O  07:48 07:33+5107:50 07:35+542m22291.764481mCRSolapur, Maharashtra
14!==|MOMohol (2)X  08:19 08:03+5808:21 08:05+592m12321.529458mCRSolapur, Maharashtra
15|==|SURSolapur (5)09:15+2409:25+2910m12354.860461mCRSolapur 413001, Maharashtra
16|==!HGHotgi Junction (3)X  09:39 09:40+3309:41+352 1m22369.881473mCRHotgi 413215, Maharashtra
17!==!AKORAkalkot Road (2)  09:56+4109:58+422m12390.167456mCRDist Solapur, Maharashtra
18!==!DUDDudhani (2)X  10:23+4910:25+502m12418.063457mCRSolapur, Maharashtra
19!==!GURGanagapur Road  10:46 10:47+5410:48+552 1m12441.041445mCRDist Gulbarga, Karnataka
20!==%GRGulbarga (4)  11:28 11:27+4211:30+422 3m32467.457458mCRGulbarga 585101, Karnataka
21%==%SDBShahabad (3)X  11:58+3712:00+362m22494.110403mCRShahabad, Karnataka
22%==%WADIWadi Junction (4)X  12:50 13:00-112:55 13:05+35m22504.291431mCRWadi, Karnataka
23%==%NWNalwar (2)  13:08 13:14+1213:10 13:15+122 1m22517.990406mSCRGulbarga, Karnataka
24%==%YGYadgir (3)  13:32+1613:34+162m12543.377369mSCRYadgir, Karnataka
25%==%SADPSaidapur (3)  13:51 13:52+2013:53+202 1m12566.481377mSCRYadgir Dist., Karnataka
26%==%KSNKrishna (2)  14:08+2414:10+242m12586.738352mSCRDist Mahabubnagar, Telangana
27%==%RCRaichur Junction (3)X  14:53 14:50+1314:55+122 5m12611.8115406mSCRRaichur, Karnataka
28%==%MTUMatmari  15:03 15:04+2115:05+222 1m12629.129371mSCRRaichur, Karnataka
29%==%MALMMantralayam Road (3)X  15:28+1215:30+222m12640.242335mSCRKurnool Tel: 08512-259830, Andhra Pradesh
30%==%KOKosigi (2)X  15:48 15:49+2115:50+232 1m12653.443379mSCRKurnool Dist., Andhra Pradesh
31%==%KGLKupgal (2)  16:08 16:09+1816:10+192 1m12667.118417mSCRKurnool Dist., Andhra Pradesh
32%==%ADAdoni (4)  16:58+317:00+32m12681.563420mSCRAdoni Tel: 08512-252368, Andhra Pradesh
33%==%NRRNagarur (2)  17:08 17:09+617:10+62 1m12691.057427mSCRKurnool, Andhra Pradesh
34|-=%GTLGuntakal Junction (6)17:55+1318:15+1520m22733.569453mSCRGuntakal. Tel: 08552-227131/32, Andhra Pradesh
35/==/GYGooty Junction (2)  18:40+2618:42+272m--2762.175370mSCRNH 7 Anantapur District, Andhra Pradesh
36/==/RLORayala Cheruvu (2)X  19:00 19:01+3419:02+342 1m--2785.757292mSCRRayalacheruvu, Andhra Pradesh
37/==/TUTadipatri (3)19:28+3219:30+322m--2810.251243mSCRAnantapuram Dist, Andhra Pradesh
38/==/KDPKondapuram (2)  20:03+2320:05+232m--2838.279214mSCRKadapa (YSR District), Andhra Pradesh
39/==/MOOMuddanuru (3)  20:23+2520:25+252m--2861.875194mSCRKadapa (YSR District), Andhra Pradesh
40/==/YAYerraguntla (2)  20:38+3020:40+302m--2878.151171mSCRKadapa / Cuddapah (YSR District), Andhra Pradesh
41/==/KKMKamalapuram (2)  20:58+2721:00+272m--2893.547141mSCRKadapa (YSR District), Andhra Pradesh
42/==/HXKadapa (3)  21:33 21:30+1721:35+172 5m12917.251146mSCRCuddapah, Andhra Pradesh
43/==/NRENandalur  22:23+922:25+102m--2957.735143mSCRRayalaseema Region, Andhra Pradesh
44/==/RJPRazampeta (2)  22:43+622:45+82m--2968.272144mSCRKadapa (YSR District), Andhra Pradesh
45/==/KOUKoduru (2)  23:13+1123:15+112m--21001.825215mSCRKadapa (YSR District), Andhra Pradesh
46/==/RURenigunta Junction (5)X  00:55-101:00+25m131042.659113mSCRChittoor District, Andhra Pradesh
47/==/PUTPuttur (3)  01:23 01:24+901:25+102 1m--31066.153149mSRPuttur, Andhra Pradesh
48/==/TRTTiruttani (3)  01:58 01:59+102:00+42 1m331096.44384mSRTiruttani, Tamil Nadu
49/==/AJJArakkonam Junction (8)  02:20+402:25+65m--31110.76791mSRArakkonam, Tamil Nadu
50/==/TRLTiruvallur (6)  02:48 02:49+702:50+72 1m--31137.76450mSRTiruvallur, Tamil Nadu
51/==/PERPerambur (4)XO  03:23 03:24+603:25+82 1m--31173.967mSRChennai-600011 Phone: 044-25510359, Tamil Nadu
52/==/MASChennai Central (12)  04:25-1-131179.4-9mSRChennai 600003, Tamil Nadu
Scroll to Top
Scroll to Bottom